sensor_id;sensor_type;location;lat;lon;timestamp;P1;durP1;ratioP1;P2;durP2;ratioP2
17528;SDS011;8882;53.192;8.184;2024-03-08T05:17:51;21.07;;;12.90;;
17528;SDS011;8882;53.192;8.184;2024-03-08T05:20:16;28.10;;;14.10;;
17528;SDS011;8882;53.192;8.184;2024-03-08T05:22:42;27.43;;;14.53;;
17528;SDS011;8882;53.192;8.184;2024-03-08T05:25:08;27.20;;;14.77;;
17528;SDS011;8882;53.192;8.184;2024-03-08T05:27:34;25.00;;;14.60;;
17528;SDS011;8882;53.192;8.184;2024-03-08T05:30:01;31.90;;;14.73;;
17528;SDS011;8882;53.192;8.184;2024-03-08T05:32:30;25.10;;;13.97;;
17528;SDS011;8882;53.192;8.184;2024-03-08T05:34:56;25.53;;;14.53;;
17528;SDS011;8882;53.192;8.184;2024-03-08T05:37:22;29.00;;;14.77;;
17528;SDS011;8882;53.192;8.184;2024-03-08T05:39:47;28.47;;;15.03;;
17528;SDS011;8882;53.192;8.184;2024-03-08T05:42:13;26.00;;;14.63;;
17528;SDS011;8882;53.192;8.184;2024-03-08T05:44:38;28.10;;;15.90;;
17528;SDS011;8882;53.192;8.184;2024-03-08T05:47:05;28.00;;;15.03;;
17528;SDS011;8882;53.192;8.184;2024-03-08T05:49:32;29.17;;;15.50;;
17528;SDS011;8882;53.192;8.184;2024-03-08T05:51:59;27.37;;;15.73;;
17528;SDS011;8882;53.192;8.184;2024-03-08T05:54:25;28.57;;;16.20;;
17528;SDS011;8882;53.192;8.184;2024-03-08T05:56:52;31.00;;;15.33;;
17528;SDS011;8882;53.192;8.184;2024-03-08T05:59:18;28.23;;;15.10;;
17528;SDS011;8882;53.192;8.184;2024-03-08T06:01:43;22.97;;;13.97;;
17528;SDS011;8882;53.192;8.184;2024-03-08T06:04:11;26.83;;;14.90;;
17528;SDS011;8882;53.192;8.184;2024-03-08T06:06:36;28.27;;;15.97;;
17528;SDS011;8882;53.192;8.184;2024-03-08T06:09:02;27.40;;;14.53;;
17528;SDS011;8882;53.192;8.184;2024-03-08T06:11:34;29.37;;;15.97;;
17528;SDS011;8882;53.192;8.184;2024-03-08T06:14:00;32.00;;;16.40;;
17528;SDS011;8882;53.192;8.184;2024-03-08T06:16:28;25.30;;;14.13;;
17528;SDS011;8882;53.192;8.184;2024-03-08T06:18:55;30.63;;;15.33;;
17528;SDS011;8882;53.192;8.184;2024-03-08T06:21:22;25.90;;;14.93;;
17528;SDS011;8882;53.192;8.184;2024-03-08T06:23:48;34.10;;;17.17;;
17528;SDS011;8882;53.192;8.184;2024-03-08T06:26:13;27.33;;;14.90;;
17528;SDS011;8882;53.192;8.184;2024-03-08T06:28:39;26.63;;;14.83;;
17528;SDS011;8882;53.192;8.184;2024-03-08T06:31:04;29.03;;;16.00;;
17528;SDS011;8882;53.192;8.184;2024-03-08T06:33:30;32.30;;;15.50;;
17528;SDS011;8882;53.192;8.184;2024-03-08T06:35:57;29.10;;;15.80;;
17528;SDS011;8882;53.192;8.184;2024-03-08T06:38:26;28.43;;;15.23;;
17528;SDS011;8882;53.192;8.184;2024-03-08T06:40:52;27.60;;;15.50;;
17528;SDS011;8882;53.192;8.184;2024-03-08T06:43:18;32.00;;;16.13;;
17528;SDS011;8882;53.192;8.184;2024-03-08T06:45:47;29.43;;;14.87;;
17528;SDS011;8882;53.192;8.184;2024-03-08T06:48:19;30.30;;;16.40;;
17528;SDS011;8882;53.192;8.184;2024-03-08T06:50:45;33.00;;;16.60;;
17528;SDS011;8882;53.192;8.184;2024-03-08T06:53:13;25.97;;;15.93;;
17528;SDS011;8882;53.192;8.184;2024-03-08T06:55:39;28.97;;;16.67;;
17528;SDS011;8882;53.192;8.184;2024-03-08T06:58:05;27.90;;;16.43;;
17528;SDS011;8882;53.192;8.184;2024-03-08T07:00:32;29.33;;;16.90;;
17528;SDS011;8882;53.192;8.184;2024-03-08T07:02:58;27.50;;;16.43;;
17528;SDS011;8882;53.192;8.184;2024-03-08T07:05:26;28.07;;;16.17;;
17528;SDS011;8882;53.192;8.184;2024-03-08T07:07:52;27.40;;;15.97;;
17528;SDS011;8882;53.192;8.184;2024-03-08T07:10:19;31.33;;;17.00;;
17528;SDS011;8882;53.192;8.184;2024-03-08T07:12:51;28.27;;;16.30;;
17528;SDS011;8882;53.192;8.184;2024-03-08T07:15:18;30.83;;;16.50;;
17528;SDS011;8882;53.192;8.184;2024-03-08T07:17:44;27.40;;;15.90;;
17528;SDS011;8882;53.192;8.184;2024-03-08T07:20:11;30.70;;;16.07;;
17528;SDS011;8882;53.192;8.184;2024-03-08T07:22:38;30.03;;;16.13;;
17528;SDS011;8882;53.192;8.184;2024-03-08T07:25:04;27.37;;;16.27;;
17528;SDS011;8882;53.192;8.184;2024-03-08T07:27:50;32.77;;;16.90;;
17528;SDS011;8882;53.192;8.184;2024-03-08T07:30:20;28.87;;;16.07;;
17528;SDS011;8882;53.192;8.184;2024-03-08T07:33:08;27.20;;;15.63;;
17528;SDS011;8882;53.192;8.184;2024-03-08T07:35:36;33.27;;;18.03;;
17528;SDS011;8882;53.192;8.184;2024-03-08T07:38:03;26.87;;;16.23;;
17528;SDS011;8882;53.192;8.184;2024-03-08T07:40:30;26.80;;;16.63;;
17528;SDS011;8882;53.192;8.184;2024-03-08T07:42:56;29.27;;;17.27;;
17528;SDS011;8882;53.192;8.184;2024-03-08T07:45:23;24.93;;;16.47;;
17528;SDS011;8882;53.192;8.184;2024-03-08T07:47:49;26.57;;;16.43;;
17528;SDS011;8882;53.192;8.184;2024-03-08T07:50:15;29.57;;;16.70;;
17528;SDS011;8882;53.192;8.184;2024-03-08T07:52:41;32.43;;;17.60;;
17528;SDS011;8882;53.192;8.184;2024-03-08T07:55:07;28.30;;;16.53;;
17528;SDS011;8882;53.192;8.184;2024-03-08T07:57:35;30.13;;;16.10;;
17528;SDS011;8882;53.192;8.184;2024-03-08T08:00:03;25.83;;;16.03;;
17528;SDS011;8882;53.192;8.184;2024-03-08T08:02:32;31.43;;;17.27;;
17528;SDS011;8882;53.192;8.184;2024-03-08T08:04:58;28.47;;;15.67;;
17528;SDS011;8882;53.192;8.184;2024-03-08T08:07:24;29.73;;;15.37;;
17528;SDS011;8882;53.192;8.184;2024-03-08T08:09:49;26.10;;;15.70;;
17528;SDS011;8882;53.192;8.184;2024-03-08T08:12:15;24.17;;;14.30;;
17528;SDS011;8882;53.192;8.184;2024-03-08T08:14:41;28.63;;;15.00;;
17528;SDS011;8882;53.192;8.184;2024-03-08T08:17:06;26.70;;;15.13;;
17528;SDS011;8882;53.192;8.184;2024-03-08T08:19:33;23.20;;;14.40;;
17528;SDS011;8882;53.192;8.184;2024-03-08T08:22:00;25.53;;;14.63;;
17528;SDS011;8882;53.192;8.184;2024-03-08T08:24:27;25.77;;;15.03;;
17528;SDS011;8882;53.192;8.184;2024-03-08T08:26:53;26.60;;;14.87;;
17528;SDS011;8882;53.192;8.184;2024-03-08T08:29:18;26.67;;;14.83;;
17528;SDS011;8882;53.192;8.184;2024-03-08T08:31:45;24.90;;;15.10;;
17528;SDS011;8882;53.192;8.184;2024-03-08T08:34:11;23.67;;;14.07;;
17528;SDS011;8882;53.192;8.184;2024-03-08T08:36:39;23.67;;;14.20;;
17528;SDS011;8882;53.192;8.184;2024-03-08T08:39:05;22.73;;;14.27;;
17528;SDS011;8882;53.192;8.184;2024-03-08T08:41:37;27.60;;;15.43;;
17528;SDS011;8882;53.192;8.184;2024-03-08T08:44:03;26.13;;;15.53;;
17528;SDS011;8882;53.192;8.184;2024-03-08T08:46:28;28.63;;;15.77;;
17528;SDS011;8882;53.192;8.184;2024-03-08T08:48:54;23.77;;;14.63;;
17528;SDS011;8882;53.192;8.184;2024-03-08T08:51:19;25.40;;;13.80;;
17528;SDS011;8882;53.192;8.184;2024-03-08T08:53:45;26.10;;;14.70;;
17528;SDS011;8882;53.192;8.184;2024-03-08T08:56:12;23.43;;;13.70;;
17528;SDS011;8882;53.192;8.184;2024-03-08T08:58:39;26.40;;;14.17;;
17528;SDS011;8882;53.192;8.184;2024-03-08T09:01:06;24.23;;;13.67;;
17528;SDS011;8882;53.192;8.184;2024-03-08T09:03:32;23.10;;;13.93;;
17528;SDS011;8882;53.192;8.184;2024-03-08T09:05:59;23.60;;;13.77;;
17528;SDS011;8882;53.192;8.184;2024-03-08T09:08:25;23.53;;;13.77;;
17528;SDS011;8882;53.192;8.184;2024-03-08T09:10:51;23.60;;;14.37;;
17528;SDS011;8882;53.192;8.184;2024-03-08T09:13:16;24.73;;;13.10;;
17528;SDS011;8882;53.192;8.184;2024-03-08T09:15:43;20.70;;;12.87;;
17528;SDS011;8882;53.192;8.184;2024-03-08T09:18:09;24.57;;;13.43;;
17528;SDS011;8882;53.192;8.184;2024-03-08T09:20:35;23.30;;;13.80;;
17528;SDS011;8882;53.192;8.184;2024-03-08T09:23:01;21.50;;;13.70;;
17528;SDS011;8882;53.192;8.184;2024-03-08T09:25:28;23.47;;;12.97;;
17528;SDS011;8882;53.192;8.184;2024-03-08T09:27:54;22.70;;;12.73;;
17528;SDS011;8882;53.192;8.184;2024-03-08T09:30:20;21.53;;;13.10;;
17528;SDS011;8882;53.192;8.184;2024-03-08T09:32:46;25.87;;;14.00;;
17528;SDS011;8882;53.192;8.184;2024-03-08T09:35:12;20.17;;;12.60;;
17528;SDS011;8882;53.192;8.184;2024-03-08T09:37:37;19.93;;;12.97;;
17528;SDS011;8882;53.192;8.184;2024-03-08T09:40:03;20.40;;;12.67;;
17528;SDS011;8882;53.192;8.184;2024-03-08T09:42:34;21.23;;;12.90;;
17528;SDS011;8882;53.192;8.184;2024-03-08T09:45:03;22.83;;;12.17;;
17528;SDS011;8882;53.192;8.184;2024-03-08T09:47:35;21.07;;;12.67;;
17528;SDS011;8882;53.192;8.184;2024-03-08T09:50:04;21.93;;;12.60;;
17528;SDS011;8882;53.192;8.184;2024-03-08T09:52:34;19.47;;;12.30;;
17528;SDS011;8882;53.192;8.184;2024-03-08T09:55:00;21.27;;;11.97;;
17528;SDS011;8882;53.192;8.184;2024-03-08T09:57:26;23.50;;;13.40;;
17528;SDS011;8882;53.192;8.184;2024-03-08T09:59:52;22.07;;;12.53;;
17528;SDS011;8882;53.192;8.184;2024-03-08T10:02:18;20.53;;;12.83;;
17528;SDS011;8882;53.192;8.184;2024-03-08T10:04:43;22.33;;;13.13;;
17528;SDS011;8882;53.192;8.184;2024-03-08T10:07:12;20.80;;;12.43;;
17528;SDS011;8882;53.192;8.184;2024-03-08T10:09:38;20.70;;;12.57;;
17528;SDS011;8882;53.192;8.184;2024-03-08T10:12:04;21.53;;;12.77;;
17528;SDS011;8882;53.192;8.184;2024-03-08T10:14:30;25.40;;;13.07;;
17528;SDS011;8882;53.192;8.184;2024-03-08T10:16:57;22.07;;;13.50;;
17528;SDS011;8882;53.192;8.184;2024-03-08T10:19:24;20.30;;;12.40;;
17528;SDS011;8882;53.192;8.184;2024-03-08T10:21:51;21.67;;;13.30;;
17528;SDS011;8882;53.192;8.184;2024-03-08T10:24:21;21.93;;;12.50;;
17528;SDS011;8882;53.192;8.184;2024-03-08T10:26:51;22.13;;;12.90;;
17528;SDS011;8882;53.192;8.184;2024-03-08T10:29:18;19.27;;;12.07;;
17528;SDS011;8882;53.192;8.184;2024-03-08T10:31:43;21.40;;;12.87;;
17528;SDS011;8882;53.192;8.184;2024-03-08T10:34:10;22.43;;;13.30;;
17528;SDS011;8882;53.192;8.184;2024-03-08T10:36:35;21.33;;;12.93;;
17528;SDS011;8882;53.192;8.184;2024-03-08T10:39:06;24.30;;;13.47;;
17528;SDS011;8882;53.192;8.184;2024-03-08T10:41:56;22.30;;;13.90;;
17528;SDS011;8882;53.192;8.184;2024-03-08T10:47:18;23.00;;;13.03;;
17528;SDS011;8882;53.192;8.184;2024-03-08T10:52:38;20.43;;;12.63;;
17528;SDS011;8882;53.192;8.184;2024-03-08T10:55:04;24.10;;;13.80;;
17528;SDS011;8882;53.192;8.184;2024-03-08T10:57:37;21.07;;;12.87;;
17528;SDS011;8882;53.192;8.184;2024-03-08T11:00:04;22.40;;;13.53;;
17528;SDS011;8882;53.192;8.184;2024-03-08T11:02:34;18.03;;;11.77;;
17528;SDS011;8882;53.192;8.184;2024-03-08T11:05:00;22.43;;;12.97;;
17528;SDS011;8882;53.192;8.184;2024-03-08T11:07:28;21.43;;;12.67;;
17528;SDS011;8882;53.192;8.184;2024-03-08T11:09:59;20.90;;;14.10;;
17528;SDS011;8882;53.192;8.184;2024-03-08T11:12:31;22.17;;;13.60;;
17528;SDS011;8882;53.192;8.184;2024-03-08T11:15:13;20.80;;;13.00;;
17528;SDS011;8882;53.192;8.184;2024-03-08T11:20:11;23.23;;;13.30;;
17528;SDS011;8882;53.192;8.184;2024-03-08T11:22:48;19.63;;;13.07;;
17528;SDS011;8882;53.192;8.184;2024-03-08T11:25:34;22.80;;;13.13;;
17528;SDS011;8882;53.192;8.184;2024-03-08T11:30:42;19.63;;;12.93;;
17528;SDS011;8882;53.192;8.184;2024-03-08T11:33:29;21.70;;;12.33;;
17528;SDS011;8882;53.192;8.184;2024-03-08T11:36:29;20.83;;;13.50;;
17528;SDS011;8882;53.192;8.184;2024-03-08T11:38:49;19.73;;;12.60;;
17528;SDS011;8882;53.192;8.184;2024-03-08T11:41:17;21.63;;;13.30;;
17528;SDS011;8882;53.192;8.184;2024-03-08T11:43:45;24.17;;;13.17;;
17528;SDS011;8882;53.192;8.184;2024-03-08T11:46:11;21.07;;;13.37;;
17528;SDS011;8882;53.192;8.184;2024-03-08T11:48:38;21.67;;;13.50;;
17528;SDS011;8882;53.192;8.184;2024-03-08T11:51:07;23.07;;;13.33;;
17528;SDS011;8882;53.192;8.184;2024-03-08T11:53:33;20.43;;;12.47;;
17528;SDS011;8882;53.192;8.184;2024-03-08T11:56:11;21.10;;;12.90;;
17528;SDS011;8882;53.192;8.184;2024-03-08T11:58:37;22.90;;;13.27;;
17528;SDS011;8882;53.192;8.184;2024-03-08T12:01:04;20.10;;;12.77;;
17528;SDS011;8882;53.192;8.184;2024-03-08T12:03:37;18.97;;;11.97;;
17528;SDS011;8882;53.192;8.184;2024-03-08T12:06:07;21.43;;;13.17;;
17528;SDS011;8882;53.192;8.184;2024-03-08T12:08:34;25.03;;;13.17;;
17528;SDS011;8882;53.192;8.184;2024-03-08T12:11:00;18.73;;;12.33;;
17528;SDS011;8882;53.192;8.184;2024-03-08T12:13:26;23.37;;;13.93;;
17528;SDS011;8882;53.192;8.184;2024-03-08T12:15:55;22.73;;;13.20;;
17528;SDS011;8882;53.192;8.184;2024-03-08T12:18:23;21.10;;;12.97;;
17528;SDS011;8882;53.192;8.184;2024-03-08T12:20:49;19.33;;;12.20;;
17528;SDS011;8882;53.192;8.184;2024-03-08T12:23:15;23.83;;;13.67;;
17528;SDS011;8882;53.192;8.184;2024-03-08T12:25:41;19.80;;;12.93;;
17528;SDS011;8882;53.192;8.184;2024-03-08T12:28:07;18.93;;;11.53;;
17528;SDS011;8882;53.192;8.184;2024-03-08T12:30:35;18.30;;;11.67;;
17528;SDS011;8882;53.192;8.184;2024-03-08T12:33:13;21.87;;;13.10;;
17528;SDS011;8882;53.192;8.184;2024-03-08T12:35:38;18.93;;;12.27;;
17528;SDS011;8882;53.192;8.184;2024-03-08T12:38:04;19.53;;;11.97;;
17528;SDS011;8882;53.192;8.184;2024-03-08T12:40:32;17.80;;;11.43;;
17528;SDS011;8882;53.192;8.184;2024-03-08T12:42:59;19.13;;;13.43;;
17528;SDS011;8882;53.192;8.184;2024-03-08T12:45:25;18.30;;;11.50;;
17528;SDS011;8882;53.192;8.184;2024-03-08T12:47:52;20.40;;;12.33;;
17528;SDS011;8882;53.192;8.184;2024-03-08T12:50:18;16.13;;;11.23;;
17528;SDS011;8882;53.192;8.184;2024-03-08T12:52:45;20.90;;;12.50;;
17528;SDS011;8882;53.192;8.184;2024-03-08T12:55:10;23.00;;;12.20;;
17528;SDS011;8882;53.192;8.184;2024-03-08T12:57:36;21.20;;;12.67;;
17528;SDS011;8882;53.192;8.184;2024-03-08T13:00:02;18.33;;;11.70;;
17528;SDS011;8882;53.192;8.184;2024-03-08T13:02:29;18.47;;;11.10;;
17528;SDS011;8882;53.192;8.184;2024-03-08T13:04:57;20.57;;;11.13;;
17528;SDS011;8882;53.192;8.184;2024-03-08T13:07:23;18.30;;;12.00;;
17528;SDS011;8882;53.192;8.184;2024-03-08T13:09:51;17.67;;;11.13;;
17528;SDS011;8882;53.192;8.184;2024-03-08T13:12:18;19.57;;;12.67;;
17528;SDS011;8882;53.192;8.184;2024-03-08T13:14:45;23.73;;;12.37;;
17528;SDS011;8882;53.192;8.184;2024-03-08T13:17:11;19.00;;;11.53;;
17528;SDS011;8882;53.192;8.184;2024-03-08T13:19:37;21.93;;;12.20;;
17528;SDS011;8882;53.192;8.184;2024-03-08T13:22:03;18.37;;;12.13;;
17528;SDS011;8882;53.192;8.184;2024-03-08T13:24:29;20.57;;;12.30;;
17528;SDS011;8882;53.192;8.184;2024-03-08T13:26:55;20.70;;;12.07;;
17528;SDS011;8882;53.192;8.184;2024-03-08T13:29:21;18.40;;;11.93;;
17528;SDS011;8882;53.192;8.184;2024-03-08T13:31:47;18.37;;;10.47;;
17528;SDS011;8882;53.192;8.184;2024-03-08T13:34:16;18.40;;;11.50;;
17528;SDS011;8882;53.192;8.184;2024-03-08T13:36:52;18.97;;;11.70;;
17528;SDS011;8882;53.192;8.184;2024-03-08T13:39:19;19.20;;;11.43;;
17528;SDS011;8882;53.192;8.184;2024-03-08T13:41:45;18.13;;;11.57;;
17528;SDS011;8882;53.192;8.184;2024-03-08T13:44:11;20.00;;;12.13;;
17528;SDS011;8882;53.192;8.184;2024-03-08T13:46:37;16.80;;;11.73;;
17528;SDS011;8882;53.192;8.184;2024-03-08T13:49:04;20.27;;;11.27;;
17528;SDS011;8882;53.192;8.184;2024-03-08T13:51:35;22.07;;;11.23;;
17528;SDS011;8882;53.192;8.184;2024-03-08T13:54:01;19.37;;;11.67;;
17528;SDS011;8882;53.192;8.184;2024-03-08T13:56:29;19.33;;;10.63;;
17528;SDS011;8882;53.192;8.184;2024-03-08T13:58:56;18.00;;;10.57;;
17528;SDS011;8882;53.192;8.184;2024-03-08T14:01:22;20.47;;;11.77;;
17528;SDS011;8882;53.192;8.184;2024-03-08T14:03:48;19.43;;;11.30;;
17528;SDS011;8882;53.192;8.184;2024-03-08T14:06:13;16.80;;;11.50;;
17528;SDS011;8882;53.192;8.184;2024-03-08T14:08:39;21.07;;;12.33;;
17528;SDS011;8882;53.192;8.184;2024-03-08T14:11:05;19.43;;;11.50;;
17528;SDS011;8882;53.192;8.184;2024-03-08T14:13:41;15.97;;;10.90;;
17528;SDS011;8882;53.192;8.184;2024-03-08T14:16:09;17.43;;;11.30;;
17528;SDS011;8882;53.192;8.184;2024-03-08T14:18:35;18.67;;;11.83;;
17528;SDS011;8882;53.192;8.184;2024-03-08T14:21:01;17.90;;;12.17;;
17528;SDS011;8882;53.192;8.184;2024-03-08T14:23:29;18.40;;;11.77;;
17528;SDS011;8882;53.192;8.184;2024-03-08T14:25:55;18.03;;;11.90;;
17528;SDS011;8882;53.192;8.184;2024-03-08T14:28:20;20.00;;;12.23;;
17528;SDS011;8882;53.192;8.184;2024-03-08T14:30:47;21.67;;;13.17;;
17528;SDS011;8882;53.192;8.184;2024-03-08T14:33:13;18.93;;;11.57;;
17528;SDS011;8882;53.192;8.184;2024-03-08T14:35:39;17.90;;;11.23;;
17528;SDS011;8882;53.192;8.184;2024-03-08T14:38:05;21.37;;;11.77;;
17528;SDS011;8882;53.192;8.184;2024-03-08T14:40:36;23.40;;;12.23;;
17528;SDS011;8882;53.192;8.184;2024-03-08T14:43:02;23.00;;;12.57;;
17528;SDS011;8882;53.192;8.184;2024-03-08T14:45:27;19.13;;;12.27;;
17528;SDS011;8882;53.192;8.184;2024-03-08T14:47:53;18.73;;;11.33;;
17528;SDS011;8882;53.192;8.184;2024-03-08T14:50:20;17.33;;;11.57;;
17528;SDS011;8882;53.192;8.184;2024-03-08T14:52:49;18.97;;;12.20;;
17528;SDS011;8882;53.192;8.184;2024-03-08T14:55:16;22.93;;;12.50;;
17528;SDS011;8882;53.192;8.184;2024-03-08T14:57:44;19.47;;;12.50;;
17528;SDS011;8882;53.192;8.184;2024-03-08T15:00:10;21.07;;;11.97;;
17528;SDS011;8882;53.192;8.184;2024-03-08T15:02:51;21.07;;;11.83;;
17528;SDS011;8882;53.192;8.184;2024-03-08T15:05:20;17.60;;;11.53;;
17528;SDS011;8882;53.192;8.184;2024-03-08T15:07:51;19.87;;;11.87;;
17528;SDS011;8882;53.192;8.184;2024-03-08T15:10:20;21.53;;;12.90;;
17528;SDS011;8882;53.192;8.184;2024-03-08T15:12:49;18.83;;;11.20;;
17528;SDS011;8882;53.192;8.184;2024-03-08T15:15:17;18.30;;;11.63;;
17528;SDS011;8882;53.192;8.184;2024-03-08T15:17:43;21.40;;;12.33;;
17528;SDS011;8882;53.192;8.184;2024-03-08T15:20:12;18.50;;;11.60;;
17528;SDS011;8882;53.192;8.184;2024-03-08T15:22:42;21.63;;;11.37;;
17528;SDS011;8882;53.192;8.184;2024-03-08T15:25:11;21.10;;;12.53;;
17528;SDS011;8882;53.192;8.184;2024-03-08T15:27:39;20.90;;;12.20;;
17528;SDS011;8882;53.192;8.184;2024-03-08T15:30:06;18.23;;;11.77;;
17528;SDS011;8882;53.192;8.184;2024-03-08T15:32:37;20.60;;;12.63;;
17528;SDS011;8882;53.192;8.184;2024-03-08T15:35:04;18.13;;;11.23;;
17528;SDS011;8882;53.192;8.184;2024-03-08T15:37:30;20.37;;;12.00;;
17528;SDS011;8882;53.192;8.184;2024-03-08T15:39:55;18.90;;;12.00;;
17528;SDS011;8882;53.192;8.184;2024-03-08T15:42:21;21.20;;;12.27;;
17528;SDS011;8882;53.192;8.184;2024-03-08T15:44:47;17.57;;;11.90;;
17528;SDS011;8882;53.192;8.184;2024-03-08T15:47:13;18.77;;;11.93;;
17528;SDS011;8882;53.192;8.184;2024-03-08T15:49:38;19.70;;;11.60;;
17528;SDS011;8882;53.192;8.184;2024-03-08T15:52:04;19.13;;;11.20;;
17528;SDS011;8882;53.192;8.184;2024-03-08T15:54:31;19.13;;;12.00;;
17528;SDS011;8882;53.192;8.184;2024-03-08T15:56:57;21.20;;;12.63;;
17528;SDS011;8882;53.192;8.184;2024-03-08T15:59:22;19.00;;;13.13;;
17528;SDS011;8882;53.192;8.184;2024-03-08T16:01:48;18.53;;;12.30;;
17528;SDS011;8882;53.192;8.184;2024-03-08T16:04:16;22.43;;;13.00;;
17528;SDS011;8882;53.192;8.184;2024-03-08T16:06:41;21.67;;;13.33;;
17528;SDS011;8882;53.192;8.184;2024-03-08T16:09:09;21.63;;;12.97;;
17528;SDS011;8882;53.192;8.184;2024-03-08T16:11:40;22.90;;;14.10;;
17528;SDS011;8882;53.192;8.184;2024-03-08T16:14:06;21.00;;;12.97;;
17528;SDS011;8882;53.192;8.184;2024-03-08T16:16:35;19.77;;;12.80;;
17528;SDS011;8882;53.192;8.184;2024-03-08T16:19:02;17.70;;;12.00;;
17528;SDS011;8882;53.192;8.184;2024-03-08T16:21:32;19.43;;;11.13;;
17528;SDS011;8882;53.192;8.184;2024-03-08T16:23:58;19.83;;;11.57;;
17528;SDS011;8882;53.192;8.184;2024-03-08T16:26:25;19.13;;;11.70;;
17528;SDS011;8882;53.192;8.184;2024-03-08T16:28:52;16.17;;;11.37;;
17528;SDS011;8882;53.192;8.184;2024-03-08T16:31:18;19.33;;;11.27;;
17528;SDS011;8882;53.192;8.184;2024-03-08T16:33:44;18.40;;;11.50;;
17528;SDS011;8882;53.192;8.184;2024-03-08T16:36:10;17.07;;;9.83;;
17528;SDS011;8882;53.192;8.184;2024-03-08T16:38:38;17.13;;;10.90;;
17528;SDS011;8882;53.192;8.184;2024-03-08T16:41:04;18.33;;;10.43;;
17528;SDS011;8882;53.192;8.184;2024-03-08T16:43:30;20.50;;;10.90;;
17528;SDS011;8882;53.192;8.184;2024-03-08T16:45:57;18.27;;;10.97;;
17528;SDS011;8882;53.192;8.184;2024-03-08T16:48:25;17.97;;;10.33;;
17528;SDS011;8882;53.192;8.184;2024-03-08T16:50:51;21.17;;;11.50;;
17528;SDS011;8882;53.192;8.184;2024-03-08T16:53:19;19.23;;;11.67;;
17528;SDS011;8882;53.192;8.184;2024-03-08T16:55:44;20.47;;;11.40;;
17528;SDS011;8882;53.192;8.184;2024-03-08T16:58:11;18.37;;;10.83;;
17528;SDS011;8882;53.192;8.184;2024-03-08T17:00:39;18.70;;;10.20;;
17528;SDS011;8882;53.192;8.184;2024-03-08T17:03:06;18.83;;;10.50;;
17528;SDS011;8882;53.192;8.184;2024-03-08T17:05:32;20.67;;;11.37;;
17528;SDS011;8882;53.192;8.184;2024-03-08T17:07:59;19.37;;;11.53;;
17528;SDS011;8882;53.192;8.184;2024-03-08T17:10:28;19.77;;;11.23;;
17528;SDS011;8882;53.192;8.184;2024-03-08T17:12:55;18.43;;;11.43;;
17528;SDS011;8882;53.192;8.184;2024-03-08T17:15:23;20.50;;;12.07;;
17528;SDS011;8882;53.192;8.184;2024-03-08T17:17:51;20.73;;;11.23;;
17528;SDS011;8882;53.192;8.184;2024-03-08T17:20:18;19.00;;;11.87;;
17528;SDS011;8882;53.192;8.184;2024-03-08T17:22:48;18.67;;;11.07;;
17528;SDS011;8882;53.192;8.184;2024-03-08T17:25:17;21.07;;;11.73;;
17528;SDS011;8882;53.192;8.184;2024-03-08T17:27:50;21.50;;;11.23;;
17528;SDS011;8882;53.192;8.184;2024-03-08T17:30:26;17.30;;;10.80;;
17528;SDS011;8882;53.192;8.184;2024-03-08T17:32:53;18.27;;;10.07;;
17528;SDS011;8882;53.192;8.184;2024-03-08T17:35:21;21.23;;;10.80;;
17528;SDS011;8882;53.192;8.184;2024-03-08T17:37:48;16.03;;;10.67;;
17528;SDS011;8882;53.192;8.184;2024-03-08T17:40:20;18.50;;;11.13;;
17528;SDS011;8882;53.192;8.184;2024-03-08T17:42:57;18.07;;;10.33;;
17528;SDS011;8882;53.192;8.184;2024-03-08T17:45:25;20.47;;;10.57;;
17528;SDS011;8882;53.192;8.184;2024-03-08T17:47:53;16.87;;;11.00;;
17528;SDS011;8882;53.192;8.184;2024-03-08T17:50:19;17.17;;;11.47;;
17528;SDS011;8882;53.192;8.184;2024-03-08T17:52:48;18.73;;;10.80;;
17528;SDS011;8882;53.192;8.184;2024-03-08T17:55:15;16.97;;;10.97;;
17528;SDS011;8882;53.192;8.184;2024-03-08T17:57:45;21.97;;;11.77;;
17528;SDS011;8882;53.192;8.184;2024-03-08T18:00:13;22.83;;;13.70;;
17528;SDS011;8882;53.192;8.184;2024-03-08T18:02:43;20.43;;;11.83;;
17528;SDS011;8882;53.192;8.184;2024-03-08T18:05:10;18.10;;;12.57;;
17528;SDS011;8882;53.192;8.184;2024-03-08T18:07:38;19.60;;;10.97;;
17528;SDS011;8882;53.192;8.184;2024-03-08T18:10:04;20.63;;;12.10;;
17528;SDS011;8882;53.192;8.184;2024-03-08T18:12:30;20.07;;;12.03;;
17528;SDS011;8882;53.192;8.184;2024-03-08T18:14:57;22.30;;;12.90;;
17528;SDS011;8882;53.192;8.184;2024-03-08T18:17:23;23.10;;;13.00;;
17528;SDS011;8882;53.192;8.184;2024-03-08T18:19:48;25.10;;;13.68;;
17528;SDS011;8882;53.192;8.184;2024-03-08T18:22:16;22.80;;;12.77;;
17528;SDS011;8882;53.192;8.184;2024-03-08T18:24:41;19.27;;;11.67;;
17528;SDS011;8882;53.192;8.184;2024-03-08T18:27:07;19.77;;;10.60;;
17528;SDS011;8882;53.192;8.184;2024-03-08T18:29:33;21.37;;;12.57;;
17528;SDS011;8882;53.192;8.184;2024-03-08T18:32:01;25.27;;;13.13;;
17528;SDS011;8882;53.192;8.184;2024-03-08T18:34:27;21.80;;;12.00;;
17528;SDS011;8882;53.192;8.184;2024-03-08T18:36:53;20.70;;;12.67;;
17528;SDS011;8882;53.192;8.184;2024-03-08T18:39:18;21.27;;;12.57;;
17528;SDS011;8882;53.192;8.184;2024-03-08T18:41:51;25.63;;;13.77;;
17528;SDS011;8882;53.192;8.184;2024-03-08T18:44:18;33.47;;;18.70;;
17528;SDS011;8882;53.192;8.184;2024-03-08T18:46:43;21.70;;;12.03;;
17528;SDS011;8882;53.192;8.184;2024-03-08T18:49:09;26.73;;;11.70;;
17528;SDS011;8882;53.192;8.184;2024-03-08T18:51:34;18.20;;;11.13;;
17528;SDS011;8882;53.192;8.184;2024-03-08T18:54:00;21.97;;;11.53;;
17528;SDS011;8882;53.192;8.184;2024-03-08T18:56:28;19.07;;;11.80;;
17528;SDS011;8882;53.192;8.184;2024-03-08T18:58:54;22.13;;;11.83;;
17528;SDS011;8882;53.192;8.184;2024-03-08T19:01:20;22.30;;;11.83;;
17528;SDS011;8882;53.192;8.184;2024-03-08T19:03:50;22.67;;;10.47;;
17528;SDS011;8882;53.192;8.184;2024-03-08T19:06:16;18.87;;;11.53;;
17528;SDS011;8882;53.192;8.184;2024-03-08T19:08:43;19.33;;;11.67;;
17528;SDS011;8882;53.192;8.184;2024-03-08T19:11:09;25.57;;;13.07;;
17528;SDS011;8882;53.192;8.184;2024-03-08T21:24:42;22.63;;;12.37;;
17528;SDS011;8882;53.192;8.184;2024-03-08T21:27:07;23.50;;;12.90;;
17528;SDS011;8882;53.192;8.184;2024-03-08T21:29:33;21.90;;;12.03;;
17528;SDS011;8882;53.192;8.184;2024-03-08T21:32:00;23.53;;;12.40;;
17528;SDS011;8882;53.192;8.184;2024-03-08T21:34:29;22.93;;;12.33;;
17528;SDS011;8882;53.192;8.184;2024-03-08T21:36:54;20.37;;;12.13;;
17528;SDS011;8882;53.192;8.184;2024-03-08T21:39:20;24.00;;;12.33;;
17528;SDS011;8882;53.192;8.184;2024-03-08T21:41:49;19.60;;;11.33;;
17528;SDS011;8882;53.192;8.184;2024-03-08T21:44:14;24.73;;;11.77;;
17528;SDS011;8882;53.192;8.184;2024-03-08T21:46:42;21.73;;;11.87;;
17528;SDS011;8882;53.192;8.184;2024-03-08T21:49:09;22.50;;;11.47;;
17528;SDS011;8882;53.192;8.184;2024-03-08T21:51:36;20.07;;;12.20;;
17528;SDS011;8882;53.192;8.184;2024-03-08T21:54:11;20.10;;;11.10;;
17528;SDS011;8882;53.192;8.184;2024-03-08T21:56:39;23.10;;;12.00;;
17528;SDS011;8882;53.192;8.184;2024-03-08T21:59:05;21.30;;;11.13;;
17528;SDS011;8882;53.192;8.184;2024-03-08T22:01:31;22.30;;;12.43;;
17528;SDS011;8882;53.192;8.184;2024-03-08T22:03:57;22.43;;;13.57;;
17528;SDS011;8882;53.192;8.184;2024-03-08T22:06:23;24.80;;;13.20;;
17528;SDS011;8882;53.192;8.184;2024-03-08T22:08:49;23.27;;;12.00;;
17528;SDS011;8882;53.192;8.184;2024-03-08T22:11:15;24.10;;;12.03;;
17528;SDS011;8882;53.192;8.184;2024-03-08T22:13:41;23.93;;;13.53;;